sensor_id;sensor_type;location;lat;lon;timestamp;pressure;altitude;pressure_sealevel;temperature;humidity
59009;BME280;44794;42.652;23.318;2022-10-23T00:01:23;95010.47;;;10.53;78.75
59009;BME280;44794;42.652;23.318;2022-10-23T00:03:52;95011.41;;;10.40;79.24
59009;BME280;44794;42.652;23.318;2022-10-23T00:06:19;95004.44;;;10.40;79.49
59009;BME280;44794;42.652;23.318;2022-10-23T00:08:46;94999.25;;;10.40;79.51
59009;BME280;44794;42.652;23.318;2022-10-23T00:11:15;95001.63;;;10.43;79.35
59009;BME280;44794;42.652;23.318;2022-10-23T00:13:41;95006.09;;;10.41;79.43
59009;BME280;44794;42.652;23.318;2022-10-23T00:16:07;95003.38;;;10.43;79.48
59009;BME280;44794;42.652;23.318;2022-10-23T00:18:33;94998.00;;;10.46;79.24
59009;BME280;44794;42.652;23.318;2022-10-23T00:20:58;94999.03;;;10.43;79.18
59009;BME280;44794;42.652;23.318;2022-10-23T00:23:24;94992.00;;;10.45;79.25
59009;BME280;44794;42.652;23.318;2022-10-23T00:25:49;94971.31;;;10.44;79.20
59009;BME280;44794;42.652;23.318;2022-10-23T00:28:15;94977.75;;;10.38;79.57
59009;BME280;44794;42.652;23.318;2022-10-23T00:30:41;94977.22;;;10.33;79.75
59009;BME280;44794;42.652;23.318;2022-10-23T00:33:06;94981.78;;;10.30;79.95
59009;BME280;44794;42.652;23.318;2022-10-23T00:35:32;94985.41;;;10.27;80.28
59009;BME280;44794;42.652;23.318;2022-10-23T00:37:57;94988.00;;;10.27;80.32
59009;BME280;44794;42.652;23.318;2022-10-23T00:40:23;94997.91;;;10.35;80.30
59009;BME280;44794;42.652;23.318;2022-10-23T00:42:48;95005.91;;;10.44;79.79
59009;BME280;44794;42.652;23.318;2022-10-23T00:45:28;95002.28;;;10.59;79.17
59009;BME280;44794;42.652;23.318;2022-10-23T00:47:58;95001.13;;;10.63;78.77
59009;BME280;44794;42.652;23.318;2022-10-23T00:50:25;94985.97;;;10.57;78.98
59009;BME280;44794;42.652;23.318;2022-10-23T00:52:53;94981.69;;;10.56;79.38
59009;BME280;44794;42.652;23.318;2022-10-23T00:55:22;94981.81;;;10.42;79.73
59009;BME280;44794;42.652;23.318;2022-10-23T00:57:49;94985.75;;;10.35;80.14
59009;BME280;44794;42.652;23.318;2022-10-23T01:00:23;94988.44;;;10.34;80.17
59009;BME280;44794;42.652;23.318;2022-10-23T01:02:50;94970.47;;;10.43;79.73
59009;BME280;44794;42.652;23.318;2022-10-23T01:05:16;94979.72;;;10.59;79.01
59009;BME280;44794;42.652;23.318;2022-10-23T01:07:49;94972.44;;;10.64;78.85
59009;BME280;44794;42.652;23.318;2022-10-23T01:10:50;94960.19;;;10.79;78.29
59009;BME280;44794;42.652;23.318;2022-10-23T01:18:52;95001.47;;;10.07;81.44
59009;BME280;44794;42.652;23.318;2022-10-23T01:21:29;95003.88;;;9.96;81.94
59009;BME280;44794;42.652;23.318;2022-10-23T01:29:13;95019.19;;;9.74;84.07
59009;BME280;44794;42.652;23.318;2022-10-23T01:32:03;95033.66;;;9.65;84.67
59009;BME280;44794;42.652;23.318;2022-10-23T01:34:56;95041.63;;;9.62;85.23
59009;BME280;44794;42.652;23.318;2022-10-23T01:37:30;95051.44;;;9.57;85.39
59009;BME280;44794;42.652;23.318;2022-10-23T01:40:01;95063.66;;;9.55;85.61
59009;BME280;44794;42.652;23.318;2022-10-23T01:42:33;95053.59;;;9.50;85.86
59009;BME280;44794;42.652;23.318;2022-10-23T01:45:04;95054.97;;;9.56;86.25
59009;BME280;44794;42.652;23.318;2022-10-23T01:47:33;95049.50;;;9.60;86.03
59009;BME280;44794;42.652;23.318;2022-10-23T01:50:02;95049.22;;;9.65;85.86
59009;BME280;44794;42.652;23.318;2022-10-23T01:52:29;95037.16;;;9.64;86.10
59009;BME280;44794;42.652;23.318;2022-10-23T01:54:57;95030.28;;;9.76;85.96
59009;BME280;44794;42.652;23.318;2022-10-23T01:57:25;95015.63;;;9.75;85.25
59009;BME280;44794;42.652;23.318;2022-10-23T01:59:57;95012.75;;;9.80;84.68
59009;BME280;44794;42.652;23.318;2022-10-23T02:02:26;95013.38;;;9.83;84.28
59009;BME280;44794;42.652;23.318;2022-10-23T02:05:01;95011.88;;;9.93;83.63
59009;BME280;44794;42.652;23.318;2022-10-23T02:07:28;95034.84;;;9.99;83.00
59009;BME280;44794;42.652;23.318;2022-10-23T02:09:54;95044.03;;;10.05;82.72
59009;BME280;44794;42.652;23.318;2022-10-23T02:20:45;95063.53;;;9.84;83.69
59009;BME280;44794;42.652;23.318;2022-10-23T02:23:22;95070.66;;;9.80;83.78
59009;BME280;44794;42.652;23.318;2022-10-23T02:25:57;95064.06;;;9.89;83.76
59009;BME280;44794;42.652;23.318;2022-10-23T02:28:26;95071.53;;;9.93;83.56
59009;BME280;44794;42.652;23.318;2022-10-23T02:30:58;95071.19;;;9.99;83.54
59009;BME280;44794;42.652;23.318;2022-10-23T02:33:26;95075.22;;;10.03;83.22
59009;BME280;44794;42.652;23.318;2022-10-23T02:35:52;95065.19;;;10.11;82.85
59009;BME280;44794;42.652;23.318;2022-10-23T02:38:35;95075.75;;;10.22;82.25
59009;BME280;44794;42.652;23.318;2022-10-23T02:49:06;95075.53;;;10.64;79.38
59009;BME280;44794;42.652;23.318;2022-10-23T02:52:08;95082.72;;;10.73;78.88
59009;BME280;44794;42.652;23.318;2022-10-23T02:57:03;95085.72;;;10.79;77.61
59009;BME280;44794;42.652;23.318;2022-10-23T03:02:08;95080.19;;;10.71;77.88
59009;BME280;44794;42.652;23.318;2022-10-23T03:04:41;95088.63;;;10.62;78.67
59009;BME280;44794;42.652;23.318;2022-10-23T03:07:10;95080.56;;;10.53;78.75
59009;BME280;44794;42.652;23.318;2022-10-23T03:09:37;95095.53;;;10.49;78.90
59009;BME280;44794;42.652;23.318;2022-10-23T03:12:02;95103.09;;;10.40;79.48
59009;BME280;44794;42.652;23.318;2022-10-23T03:14:28;95099.78;;;10.38;79.87
59009;BME280;44794;42.652;23.318;2022-10-23T03:16:53;95099.56;;;10.41;79.67
59009;BME280;44794;42.652;23.318;2022-10-23T03:19:19;95097.50;;;10.46;79.44
59009;BME280;44794;42.652;23.318;2022-10-23T03:21:44;95098.97;;;10.50;79.34
59009;BME280;44794;42.652;23.318;2022-10-23T03:24:10;95103.13;;;10.52;79.42
59009;BME280;44794;42.652;23.318;2022-10-23T03:26:35;95104.28;;;10.48;79.55
59009;BME280;44794;42.652;23.318;2022-10-23T03:29:00;95116.41;;;10.48;79.57
59009;BME280;44794;42.652;23.318;2022-10-23T03:31:26;95114.84;;;10.46;79.65
59009;BME280;44794;42.652;23.318;2022-10-23T03:33:51;95108.28;;;10.40;79.97
59009;BME280;44794;42.652;23.318;2022-10-23T03:36:17;95104.97;;;10.38;80.08
59009;BME280;44794;42.652;23.318;2022-10-23T03:38:42;95115.03;;;10.43;80.23
59009;BME280;44794;42.652;23.318;2022-10-23T03:41:08;95114.22;;;10.42;80.17
59009;BME280;44794;42.652;23.318;2022-10-23T03:43:33;95122.19;;;10.39;80.24
59009;BME280;44794;42.652;23.318;2022-10-23T03:45:59;95122.94;;;10.41;79.60
59009;BME280;44794;42.652;23.318;2022-10-23T03:48:25;95127.66;;;10.48;78.60
59009;BME280;44794;42.652;23.318;2022-10-23T03:50:50;95128.06;;;10.55;78.27
59009;BME280;44794;42.652;23.318;2022-10-23T03:53:16;95138.66;;;10.52;78.21
59009;BME280;44794;42.652;23.318;2022-10-23T03:55:43;95133.03;;;10.46;77.89
59009;BME280;44794;42.652;23.318;2022-10-23T03:58:09;95136.34;;;10.48;77.21
59009;BME280;44794;42.652;23.318;2022-10-23T04:00:35;95153.28;;;10.53;76.80
59009;BME280;44794;42.652;23.318;2022-10-23T04:03:00;95155.16;;;10.51;76.78
59009;BME280;44794;42.652;23.318;2022-10-23T04:05:26;95165.69;;;10.62;75.62
59009;BME280;44794;42.652;23.318;2022-10-23T04:07:51;95164.66;;;10.64;75.13
59009;BME280;44794;42.652;23.318;2022-10-23T04:10:16;95161.22;;;10.64;75.02
59009;BME280;44794;42.652;23.318;2022-10-23T04:12:42;95169.44;;;10.70;74.22
59009;BME280;44794;42.652;23.318;2022-10-23T04:15:08;95165.09;;;10.71;73.60
59009;BME280;44794;42.652;23.318;2022-10-23T04:17:33;95166.28;;;10.92;72.60
59009;BME280;44794;42.652;23.318;2022-10-23T04:19:58;95160.69;;;10.98;72.02
59009;BME280;44794;42.652;23.318;2022-10-23T04:22:24;95160.38;;;11.02;71.15
59009;BME280;44794;42.652;23.318;2022-10-23T04:24:49;95155.41;;;11.12;70.47
59009;BME280;44794;42.652;23.318;2022-10-23T04:27:15;95162.78;;;11.18;68.85
59009;BME280;44794;42.652;23.318;2022-10-23T04:29:40;95176.63;;;11.30;68.41
59009;BME280;44794;42.652;23.318;2022-10-23T04:32:06;95171.00;;;11.36;67.56
59009;BME280;44794;42.652;23.318;2022-10-23T04:34:32;95173.72;;;11.47;67.01
59009;BME280;44794;42.652;23.318;2022-10-23T04:36:57;95182.81;;;11.54;66.78
59009;BME280;44794;42.652;23.318;2022-10-23T04:39:23;95173.22;;;11.67;65.92
59009;BME280;44794;42.652;23.318;2022-10-23T04:41:48;95163.22;;;11.61;65.26
59009;BME280;44794;42.652;23.318;2022-10-23T04:44:13;95166.44;;;11.77;64.26
59009;BME280;44794;42.652;23.318;2022-10-23T04:46:39;95175.25;;;11.99;63.00
59009;BME280;44794;42.652;23.318;2022-10-23T04:49:04;95173.44;;;12.12;62.27
59009;BME280;44794;42.652;23.318;2022-10-23T04:51:30;95186.94;;;12.30;61.90
59009;BME280;44794;42.652;23.318;2022-10-23T04:53:55;95190.47;;;12.29;61.86
59009;BME280;44794;42.652;23.318;2022-10-23T04:56:21;95188.50;;;12.32;61.70
59009;BME280;44794;42.652;23.318;2022-10-23T04:58:46;95188.34;;;12.46;60.50
59009;BME280;44794;42.652;23.318;2022-10-23T05:01:12;95187.81;;;12.77;59.60
59009;BME280;44794;42.652;23.318;2022-10-23T05:03:37;95203.00;;;13.06;58.39
59009;BME280;44794;42.652;23.318;2022-10-23T05:06:03;95198.59;;;13.30;57.91
59009;BME280;44794;42.652;23.318;2022-10-23T05:08:29;95206.47;;;13.63;56.71
59009;BME280;44794;42.652;23.318;2022-10-23T05:10:54;95204.25;;;13.80;55.92
59009;BME280;44794;42.652;23.318;2022-10-23T05:13:20;95207.97;;;14.11;55.75
59009;BME280;44794;42.652;23.318;2022-10-23T05:15:47;95216.59;;;14.66;54.88
59009;BME280;44794;42.652;23.318;2022-10-23T05:18:24;95218.41;;;15.28;52.83
59009;BME280;44794;42.652;23.318;2022-10-23T05:20:55;95213.50;;;15.55;52.40
59009;BME280;44794;42.652;23.318;2022-10-23T05:23:23;95213.50;;;15.95;51.20
59009;BME280;44794;42.652;23.318;2022-10-23T05:25:49;95209.69;;;16.09;50.44
59009;BME280;44794;42.652;23.318;2022-10-23T05:28:15;95225.22;;;16.21;50.31
59009;BME280;44794;42.652;23.318;2022-10-23T05:30:41;95224.16;;;16.03;50.53
59009;BME280;44794;42.652;23.318;2022-10-23T05:33:07;95227.19;;;15.78;51.04
59009;BME280;44794;42.652;23.318;2022-10-23T05:35:35;95223.50;;;15.61;51.54
59009;BME280;44794;42.652;23.318;2022-10-23T05:38:01;95234.44;;;15.55;52.84
59009;BME280;44794;42.652;23.318;2022-10-23T05:40:27;95241.22;;;15.37;54.13
59009;BME280;44794;42.652;23.318;2022-10-23T05:42:52;95236.94;;;15.36;54.91
59009;BME280;44794;42.652;23.318;2022-10-23T05:45:18;95245.75;;;15.35;54.76
59009;BME280;44794;42.652;23.318;2022-10-23T05:47:44;95243.91;;;15.26;56.08
59009;BME280;44794;42.652;23.318;2022-10-23T05:50:10;95243.91;;;15.26;57.21
59009;BME280;44794;42.652;23.318;2022-10-23T05:52:35;95245.28;;;15.30;57.95
59009;BME280;44794;42.652;23.318;2022-10-23T05:55:01;95243.63;;;15.29;59.46
59009;BME280;44794;42.652;23.318;2022-10-23T05:57:26;95248.88;;;15.29;59.26
59009;BME280;44794;42.652;23.318;2022-10-23T05:59:52;95253.38;;;15.27;59.97
59009;BME280;44794;42.652;23.318;2022-10-23T06:02:17;95270.06;;;15.26;60.55
59009;BME280;44794;42.652;23.318;2022-10-23T06:04:42;95268.84;;;15.30;61.71
59009;BME280;44794;42.652;23.318;2022-10-23T06:07:08;95272.19;;;15.32;62.46
59009;BME280;44794;42.652;23.318;2022-10-23T06:09:33;95261.91;;;15.40;62.96
59009;BME280;44794;42.652;23.318;2022-10-23T06:12:00;95269.94;;;15.48;63.59
59009;BME280;44794;42.652;23.318;2022-10-23T06:14:26;95266.84;;;15.54;63.71
59009;BME280;44794;42.652;23.318;2022-10-23T06:16:52;95263.97;;;15.57;64.94
59009;BME280;44794;42.652;23.318;2022-10-23T06:19:17;95273.69;;;15.66;65.64
59009;BME280;44794;42.652;23.318;2022-10-23T06:21:43;95277.91;;;15.77;65.80
59009;BME280;44794;42.652;23.318;2022-10-23T06:24:08;95282.13;;;15.89;66.19
59009;BME280;44794;42.652;23.318;2022-10-23T06:26:34;95276.13;;;15.98;66.08
59009;BME280;44794;42.652;23.318;2022-10-23T06:28:59;95273.31;;;16.11;65.97
59009;BME280;44794;42.652;23.318;2022-10-23T06:31:25;95268.63;;;16.14;66.07
59009;BME280;44794;42.652;23.318;2022-10-23T06:33:56;95279.31;;;16.22;65.62
59009;BME280;44794;42.652;23.318;2022-10-23T06:36:23;95281.63;;;16.36;64.98
59009;BME280;44794;42.652;23.318;2022-10-23T06:38:49;95280.75;;;16.36;64.90
59009;BME280;44794;42.652;23.318;2022-10-23T06:41:18;95285.47;;;16.42;64.83
59009;BME280;44794;42.652;23.318;2022-10-23T06:43:47;95291.00;;;16.39;64.49
59009;BME280;44794;42.652;23.318;2022-10-23T06:46:12;95290.34;;;16.46;64.66
59009;BME280;44794;42.652;23.318;2022-10-23T06:48:40;95290.09;;;16.49;64.30
59009;BME280;44794;42.652;23.318;2022-10-23T06:51:07;95294.38;;;16.50;64.17
59009;BME280;44794;42.652;23.318;2022-10-23T06:53:34;95298.25;;;16.55;63.56
59009;BME280;44794;42.652;23.318;2022-10-23T06:56:02;95294.63;;;16.47;63.29
59009;BME280;44794;42.652;23.318;2022-10-23T06:58:28;95286.03;;;16.45;63.44
59009;BME280;44794;42.652;23.318;2022-10-23T07:00:54;95298.44;;;16.34;63.85
59009;BME280;44794;42.652;23.318;2022-10-23T07:03:20;95309.50;;;16.37;63.80
59009;BME280;44794;42.652;23.318;2022-10-23T07:05:45;95309.66;;;16.45;63.77
59009;BME280;44794;42.652;23.318;2022-10-23T07:08:14;95299.34;;;16.53;63.06
59009;BME280;44794;42.652;23.318;2022-10-23T07:10:39;95303.59;;;16.74;62.57
59009;BME280;44794;42.652;23.318;2022-10-23T07:13:09;95302.81;;;16.93;62.07
59009;BME280;44794;42.652;23.318;2022-10-23T07:15:35;95303.09;;;16.99;61.60
59009;BME280;44794;42.652;23.318;2022-10-23T07:18:01;95301.16;;;16.92;62.14
59009;BME280;44794;42.652;23.318;2022-10-23T07:20:26;95296.69;;;16.73;61.85
59009;BME280;44794;42.652;23.318;2022-10-23T07:22:53;95295.00;;;16.72;62.18
59009;BME280;44794;42.652;23.318;2022-10-23T07:25:26;95298.38;;;16.84;62.29
59009;BME280;44794;42.652;23.318;2022-10-23T07:27:52;95307.75;;;16.86;62.05
59009;BME280;44794;42.652;23.318;2022-10-23T07:30:19;95300.75;;;16.96;62.13
59009;BME280;44794;42.652;23.318;2022-10-23T07:32:45;95307.53;;;16.99;61.28
59009;BME280;44794;42.652;23.318;2022-10-23T07:35:11;95307.94;;;17.04;60.88
59009;BME280;44794;42.652;23.318;2022-10-23T07:37:37;95288.78;;;17.13;60.92
59009;BME280;44794;42.652;23.318;2022-10-23T07:40:06;95302.56;;;17.15;59.94
59009;BME280;44794;42.652;23.318;2022-10-23T07:42:32;95286.72;;;17.26;59.04
59009;BME280;44794;42.652;23.318;2022-10-23T07:44:58;95282.63;;;17.33;59.19
59009;BME280;44794;42.652;23.318;2022-10-23T07:47:23;95289.81;;;17.49;58.92
59009;BME280;44794;42.652;23.318;2022-10-23T07:49:48;95298.38;;;17.61;58.02
59009;BME280;44794;42.652;23.318;2022-10-23T07:52:14;95303.22;;;17.75;57.25
59009;BME280;44794;42.652;23.318;2022-10-23T07:54:39;95312.38;;;17.80;56.69
59009;BME280;44794;42.652;23.318;2022-10-23T07:57:05;95308.06;;;17.98;56.50
59009;BME280;44794;42.652;23.318;2022-10-23T07:59:32;95311.94;;;17.94;56.17
59009;BME280;44794;42.652;23.318;2022-10-23T08:01:58;95316.81;;;17.89;56.04
59009;BME280;44794;42.652;23.318;2022-10-23T08:04:23;95316.66;;;17.81;56.42
59009;BME280;44794;42.652;23.318;2022-10-23T08:06:49;95319.13;;;17.83;56.31
59009;BME280;44794;42.652;23.318;2022-10-23T08:09:14;95322.19;;;17.78;56.50
59009;BME280;44794;42.652;23.318;2022-10-23T08:11:40;95315.13;;;17.60;57.01
59009;BME280;44794;42.652;23.318;2022-10-23T08:14:07;95312.78;;;17.66;57.11
59009;BME280;44794;42.652;23.318;2022-10-23T08:16:34;95320.81;;;17.65;57.42
59009;BME280;44794;42.652;23.318;2022-10-23T08:19:01;95311.41;;;17.62;57.54
59009;BME280;44794;42.652;23.318;2022-10-23T08:21:26;95310.00;;;17.58;57.50
59009;BME280;44794;42.652;23.318;2022-10-23T08:23:53;95316.09;;;17.68;56.81
59009;BME280;44794;42.652;23.318;2022-10-23T08:26:19;95306.56;;;17.77;56.55
59009;BME280;44794;42.652;23.318;2022-10-23T08:28:45;95302.16;;;17.87;56.06
59009;BME280;44794;42.652;23.318;2022-10-23T08:31:14;95305.16;;;17.92;56.25
59009;BME280;44794;42.652;23.318;2022-10-23T08:33:40;95307.78;;;18.01;55.75
59009;BME280;44794;42.652;23.318;2022-10-23T08:36:33;95308.75;;;18.00;55.92
59009;BME280;44794;42.652;23.318;2022-10-23T08:39:00;95308.06;;;18.08;55.94
59009;BME280;44794;42.652;23.318;2022-10-23T08:41:42;95304.31;;;18.10;55.73
59009;BME280;44794;42.652;23.318;2022-10-23T08:57:26;95311.44;;;18.55;54.92
59009;BME280;44794;42.652;23.318;2022-10-23T09:00:10;95308.91;;;18.73;55.21
59009;BME280;44794;42.652;23.318;2022-10-23T09:02:42;95314.97;;;18.73;54.51
59009;BME280;44794;42.652;23.318;2022-10-23T09:05:30;95313.00;;;18.84;54.15
59009;BME280;44794;42.652;23.318;2022-10-23T09:15:51;95306.63;;;18.87;53.83
59009;BME280;44794;42.652;23.318;2022-10-23T09:18:19;95302.72;;;18.91;52.93
59009;BME280;44794;42.652;23.318;2022-10-23T09:20:45;95308.75;;;19.01;53.42
59009;BME280;44794;42.652;23.318;2022-10-23T09:23:21;95311.16;;;18.94;53.37
59009;BME280;44794;42.652;23.318;2022-10-23T09:25:50;95308.31;;;19.05;53.26
59009;BME280;44794;42.652;23.318;2022-10-23T09:28:25;95295.94;;;19.25;52.80
59009;BME280;44794;42.652;23.318;2022-10-23T09:30:52;95297.00;;;19.32;52.77
59009;BME280;44794;42.652;23.318;2022-10-23T09:33:23;95302.69;;;19.27;52.55
59009;BME280;44794;42.652;23.318;2022-10-23T09:38:34;95299.63;;;19.32;51.31
59009;BME280;44794;42.652;23.318;2022-10-23T09:41:06;95294.72;;;19.37;51.46
59009;BME280;44794;42.652;23.318;2022-10-23T09:43:35;95278.31;;;19.43;51.57
59009;BME280;44794;42.652;23.318;2022-10-23T09:46:05;95292.19;;;19.45;51.52
59009;BME280;44794;42.652;23.318;2022-10-23T09:48:31;95307.13;;;19.54;51.59
59009;BME280;44794;42.652;23.318;2022-10-23T09:51:02;95296.03;;;19.50;51.06
59009;BME280;44794;42.652;23.318;2022-10-23T09:56:50;95299.66;;;19.49;49.98
59009;BME280;44794;42.652;23.318;2022-10-23T09:58:57;95296.06;;;19.67;49.76
59009;BME280;44794;42.652;23.318;2022-10-23T10:01:29;95293.09;;;19.70;48.68
59009;BME280;44794;42.652;23.318;2022-10-23T10:03:55;95299.75;;;19.74;48.76
59009;BME280;44794;42.652;23.318;2022-10-23T10:06:25;95290.97;;;19.91;48.26
59009;BME280;44794;42.652;23.318;2022-10-23T10:09:17;95278.13;;;20.06;48.30
59009;BME280;44794;42.652;23.318;2022-10-23T10:11:48;95283.25;;;20.07;47.67
59009;BME280;44794;42.652;23.318;2022-10-23T10:22:38;95270.97;;;19.98;45.98
59009;BME280;44794;42.652;23.318;2022-10-23T10:31:16;95262.50;;;20.12;45.10
59009;BME280;44794;42.652;23.318;2022-10-23T10:33:55;95268.53;;;20.22;45.76
59009;BME280;44794;42.652;23.318;2022-10-23T10:39:03;95261.69;;;20.37;44.37
59009;BME280;44794;42.652;23.318;2022-10-23T10:41:59;95252.75;;;20.30;44.61
59009;BME280;44794;42.652;23.318;2022-10-23T10:47:13;95259.06;;;20.37;44.61
59009;BME280;44794;42.652;23.318;2022-10-23T10:55:29;95255.13;;;20.41;42.52
59009;BME280;44794;42.652;23.318;2022-10-23T10:58:02;95254.66;;;20.45;43.87
59009;BME280;44794;42.652;23.318;2022-10-23T11:00:30;95246.06;;;20.43;43.92
59009;BME280;44794;42.652;23.318;2022-10-23T11:03:02;95239.69;;;20.54;43.77
59009;BME280;44794;42.652;23.318;2022-10-23T11:05:42;95239.13;;;20.42;44.12
59009;BME280;44794;42.652;23.318;2022-10-23T11:08:17;95245.44;;;20.49;43.87
59009;BME280;44794;42.652;23.318;2022-10-23T11:10:49;95240.66;;;20.53;42.87
59009;BME280;44794;42.652;23.318;2022-10-23T11:15:49;95233.59;;;20.53;41.93
59009;BME280;44794;42.652;23.318;2022-10-23T11:18:23;95237.22;;;20.52;42.16
59009;BME280;44794;42.652;23.318;2022-10-23T11:21:07;95235.19;;;20.46;42.77
59009;BME280;44794;42.652;23.318;2022-10-23T11:27:05;95208.59;;;20.40;42.76
59009;BME280;44794;42.652;23.318;2022-10-23T11:38:25;95210.84;;;20.60;43.99
59009;BME280;44794;42.652;23.318;2022-10-23T11:40:58;95197.31;;;20.63;44.07
59009;BME280;44794;42.652;23.318;2022-10-23T11:45:51;95187.03;;;20.78;42.98
59009;BME280;44794;42.652;23.318;2022-10-23T11:48:36;95185.38;;;20.77;42.73
59009;BME280;44794;42.652;23.318;2022-10-23T11:51:03;95184.47;;;20.60;43.53
59009;BME280;44794;42.652;23.318;2022-10-23T11:58:56;95158.44;;;20.73;43.51
59009;BME280;44794;42.652;23.318;2022-10-23T12:06:39;95182.50;;;20.70;43.86
59009;BME280;44794;42.652;23.318;2022-10-23T12:09:21;95185.81;;;20.72;43.25
59009;BME280;44794;42.652;23.318;2022-10-23T12:14:48;95182.03;;;20.75;43.55
59009;BME280;44794;42.652;23.318;2022-10-23T12:19:54;95170.94;;;20.63;43.29
59009;BME280;44794;42.652;23.318;2022-10-23T12:22:26;95186.50;;;20.74;43.18
59009;BME280;44794;42.652;23.318;2022-10-23T12:27:45;95178.19;;;20.61;42.91
59009;BME280;44794;42.652;23.318;2022-10-23T12:30:20;95180.75;;;20.45;42.66
59009;BME280;44794;42.652;23.318;2022-10-23T12:38:25;95170.41;;;20.52;42.43
59009;BME280;44794;42.652;23.318;2022-10-23T12:40:54;95170.94;;;20.55;42.71
59009;BME280;44794;42.652;23.318;2022-10-23T12:43:31;95170.63;;;20.66;42.73
59009;BME280;44794;42.652;23.318;2022-10-23T12:48:50;95163.81;;;20.56;43.03
59009;BME280;44794;42.652;23.318;2022-10-23T12:51:22;95178.06;;;20.38;42.99
59009;BME280;44794;42.652;23.318;2022-10-23T12:53:48;95164.94;;;20.45;42.77
59009;BME280;44794;42.652;23.318;2022-10-23T12:56:14;95183.44;;;20.53;42.72
59009;BME280;44794;42.652;23.318;2022-10-23T12:58:47;95183.44;;;20.53;42.46
59009;BME280;44794;42.652;23.318;2022-10-23T13:01:23;95186.25;;;20.52;42.60
59009;BME280;44794;42.652;23.318;2022-10-23T13:03:49;95183.44;;;20.53;43.05
59009;BME280;44794;42.652;23.318;2022-10-23T13:06:15;95165.94;;;20.52;42.74
59009;BME280;44794;42.652;23.318;2022-10-23T13:08:44;95179.16;;;20.52;43.10
59009;BME280;44794;42.652;23.318;2022-10-23T13:11:15;95180.81;;;20.53;42.80
59009;BME280;44794;42.652;23.318;2022-10-23T13:13:41;95188.38;;;20.48;43.30
59009;BME280;44794;42.652;23.318;2022-10-23T13:16:19;95184.13;;;20.55;43.01
59009;BME280;44794;42.652;23.318;2022-10-23T13:18:46;95181.81;;;20.60;42.78
59009;BME280;44794;42.652;23.318;2022-10-23T13:21:19;95189.41;;;20.63;42.57
59009;BME280;44794;42.652;23.318;2022-10-23T13:23:45;95180.59;;;20.47;42.41
59009;BME280;44794;42.652;23.318;2022-10-23T13:28:55;95173.91;;;20.60;42.72
59009;BME280;44794;42.652;23.318;2022-10-23T13:31:33;95176.50;;;20.52;42.80
59009;BME280;44794;42.652;23.318;2022-10-23T13:36:25;95174.03;;;20.51;43.26
59009;BME280;44794;42.652;23.318;2022-10-23T13:41:24;95178.69;;;20.57;43.25
59009;BME280;44794;42.652;23.318;2022-10-23T13:43:50;95191.31;;;20.45;42.93
59009;BME280;44794;42.652;23.318;2022-10-23T13:46:18;95180.09;;;20.43;43.35
59009;BME280;44794;42.652;23.318;2022-10-23T13:48:44;95191.00;;;20.48;43.21
59009;BME280;44794;42.652;23.318;2022-10-23T13:51:14;95176.13;;;20.39;43.17
59009;BME280;44794;42.652;23.318;2022-10-23T13:53:40;95188.34;;;20.40;43.25
59009;BME280;44794;42.652;23.318;2022-10-23T13:56:09;95184.28;;;20.29;42.92
59009;BME280;44794;42.652;23.318;2022-10-23T13:58:36;95187.59;;;20.31;43.36
59009;BME280;44794;42.652;23.318;2022-10-23T14:01:01;95187.59;;;20.31;43.02
59009;BME280;44794;42.652;23.318;2022-10-23T14:03:27;95177.00;;;20.23;42.61
59009;BME280;44794;42.652;23.318;2022-10-23T14:05:52;95177.34;;;20.20;42.40
59009;BME280;44794;42.652;23.318;2022-10-23T14:08:18;95184.22;;;20.13;43.01
59009;BME280;44794;42.652;23.318;2022-10-23T14:10:43;95176.91;;;20.07;43.10
59009;BME280;44794;42.652;23.318;2022-10-23T14:13:09;95173.91;;;20.02;43.25
59009;BME280;44794;42.652;23.318;2022-10-23T14:15:35;95169.94;;;19.98;43.16
59009;BME280;44794;42.652;23.318;2022-10-23T14:18:00;95166.88;;;19.93;43.70
59009;BME280;44794;42.652;23.318;2022-10-23T14:20:26;95170.47;;;19.84;43.70
59009;BME280;44794;42.652;23.318;2022-10-23T14:22:52;95174.72;;;19.77;44.15
59009;BME280;44794;42.652;23.318;2022-10-23T14:25:17;95167.44;;;19.71;44.54
59009;BME280;44794;42.652;23.318;2022-10-23T14:27:43;95171.84;;;19.70;44.63
59009;BME280;44794;42.652;23.318;2022-10-23T14:30:09;95162.38;;;19.60;45.04
59009;BME280;44794;42.652;23.318;2022-10-23T14:32:35;95166.31;;;19.56;45.10
59009;BME280;44794;42.652;23.318;2022-10-23T14:35:00;95172.19;;;19.50;45.42
59009;BME280;44794;42.652;23.318;2022-10-23T14:37:32;95176.25;;;19.45;45.44
59009;BME280;44794;42.652;23.318;2022-10-23T14:39:58;95166.84;;;19.42;46.02
59009;BME280;44794;42.652;23.318;2022-10-23T14:42:24;95162.94;;;19.29;46.43
59009;BME280;44794;42.652;23.318;2022-10-23T14:44:51;95164.31;;;19.15;47.32
59009;BME280;44794;42.652;23.318;2022-10-23T14:47:17;95161.28;;;19.10;47.87
59009;BME280;44794;42.652;23.318;2022-10-23T14:49:48;95155.44;;;19.07;47.94
59009;BME280;44794;42.652;23.318;2022-10-23T14:52:16;95170.06;;;19.01;48.18
59009;BME280;44794;42.652;23.318;2022-10-23T14:54:41;95171.47;;;18.96;48.53
59009;BME280;44794;42.652;23.318;2022-10-23T14:57:07;95176.50;;;18.89;49.17
59009;BME280;44794;42.652;23.318;2022-10-23T14:59:32;95173.66;;;18.83;49.24
59009;BME280;44794;42.652;23.318;2022-10-23T15:01:59;95176.41;;;18.82;49.60
59009;BME280;44794;42.652;23.318;2022-10-23T15:04:25;95181.75;;;18.72;49.94
59009;BME280;44794;42.652;23.318;2022-10-23T15:06:51;95175.31;;;18.57;50.39
59009;BME280;44794;42.652;23.318;2022-10-23T15:09:16;95168.53;;;18.55;50.64
59009;BME280;44794;42.652;23.318;2022-10-23T15:11:44;95173.03;;;18.45;51.00
59009;BME280;44794;42.652;23.318;2022-10-23T15:14:10;95183.31;;;18.38;51.17